Time;durP1;ratioP1;P1;durP2;ratioP2;P2;SDS_P1;SDS_P2;PMS_P1;PMS_P2;Temp;Humidity;BMP_temperature;BMP_pressure;BME280_temperature;BME280_humidity;BME280_pressure;Samples;Min_cycle;Max_cycle;Signal;HPM_P1;HPM_P2
2023/03/05 00:00:37;;;;;;;;;;;;;;;4.30;92.33;101112.50;4956297;28;20781;-71
2023/03/05 00:03:41;;;;;;;;;;;;;;;4.34;91.81;101119.38;4956097;28;19984;-70
2023/03/05 00:06:44;;;;;;;;;;;;;;;4.33;91.40;101116.78;4956043;28;19925;-71
2023/03/05 00:09:47;;;;;;;;;;;;;;;4.32;91.40;101113.34;4956085;28;19924;-71
2023/03/05 00:12:50;;;;;;;;;;;;;;;4.34;91.69;101116.78;4956279;28;20398;-71
2023/03/05 00:15:54;;;;;;;;;;;;;;;4.33;91.50;101117.63;4955894;28;19933;-71
2023/03/05 00:18:58;;;;;;;;;;;;;;;4.28;91.38;101116.03;4956049;28;19925;-71
2023/03/05 00:22:01;;;;;;;;;;;;;;;4.24;91.40;101117.78;4955480;29;19973;-71
2023/03/05 00:25:04;;;;;;;;;;;;;;;4.23;91.94;101116.09;4956239;29;19977;-71
2023/03/05 00:28:08;;;;;;;;;;;;;;;4.06;92.69;101112.94;4943822;29;19941;-71
2023/03/05 00:31:13;;;;;;;;;;;;;;;4.18;91.79;101111.00;4955858;28;19925;-70
2023/03/05 00:34:18;;;;;;;;;;;;;;;4.21;91.85;101110.06;4955739;28;19972;-70
2023/03/05 00:37:21;;;;;;;;;;;;;;;4.24;92.04;101106.59;4955469;28;19970;-71
2023/03/05 00:40:24;;;;;;;;;;;;;;;4.18;91.42;101107.56;4943608;28;20401;-71
2023/03/05 00:43:28;;;;;;;;;;;;;;;4.13;91.59;101104.19;4943509;28;19973;-71
2023/03/05 00:46:31;;;;;;;;;;;;;;;4.15;92.12;101099.84;4955162;28;19930;-71
2023/03/05 00:49:35;;;;;;;;;;;;;;;4.18;92.26;101087.72;4955591;28;19925;-71
2023/03/05 00:52:38;;;;;;;;;;;;;;;4.15;91.86;101092.94;4955179;28;19926;-71
2023/03/05 00:55:44;;;;;;;;;;;;;;;4.11;91.64;101090.41;4955113;28;20437;-71
2023/03/05 00:58:47;;;;;;;;;;;;;;;4.10;91.57;101089.56;4955324;28;19992;-71
2023/03/05 01:01:50;;;;;;;;;;;;;;;4.13;91.70;101075.72;4943184;29;19968;-71
2023/03/05 01:04:53;;;;;;;;;;;;;;;4.08;91.63;101077.50;4955154;28;19925;-71
2023/03/05 01:07:56;;;;;;;;;;;;;;;4.06;91.61;101076.72;4954897;29;20060;-71
2023/03/05 01:11:00;;;;;;;;;;;;;;;4.04;91.58;101073.28;4954951;28;20414;-71
2023/03/05 01:14:03;;;;;;;;;;;;;;;4.01;91.31;101073.31;4943388;28;19925;-71
2023/03/05 01:17:07;;;;;;;;;;;;;;;4.00;91.37;101066.47;4943045;29;20326;-71
2023/03/05 01:20:12;;;;;;;;;;;;;;;4.00;91.92;101071.63;4955180;28;19930;-70
2023/03/05 01:23:15;;;;;;;;;;;;;;;4.03;91.86;101063.81;4954833;28;19934;-70
2023/03/05 01:26:17;;;;;;;;;;;;;;;3.99;90.90;101052.66;4954755;28;19926;-71
2023/03/05 01:29:21;;;;;;;;;;;;;;;3.95;91.08;101059.59;4942798;29;20018;-71
2023/03/05 01:32:24;;;;;;;;;;;;;;;3.92;91.32;101053.63;4942783;28;19972;-71
2023/03/05 01:35:27;;;;;;;;;;;;;;;3.91;91.22;101049.34;4954613;28;19929;-71
2023/03/05 01:38:31;;;;;;;;;;;;;;;3.91;91.36;101042.44;4954676;28;20347;-71
2023/03/05 01:41:34;;;;;;;;;;;;;;;3.94;91.91;101042.38;4954997;28;19925;-70
2023/03/05 01:44:37;;;;;;;;;;;;;;;4.01;91.56;101043.13;4953879;28;19930;-71
2023/03/05 01:47:42;;;;;;;;;;;;;;;3.98;91.16;101040.59;4950786;29;20436;-71
2023/03/05 01:50:45;;;;;;;;;;;;;;;3.92;90.96;101043.28;4954431;28;19926;-72
2023/03/05 01:53:48;;;;;;;;;;;;;;;3.91;91.21;101037.25;4954636;28;20408;-71
2023/03/05 01:56:53;;;;;;;;;;;;;;;3.90;91.19;101020.03;4942540;29;19938;-71
2023/03/05 01:59:59;;;;;;;;;;;;;;;3.86;91.14;101026.16;4942643;28;20300;-71
2023/03/05 02:03:03;;;;;;;;;;;;;;;3.86;90.83;101018.38;4942525;28;19949;-70
2023/03/05 02:06:06;;;;;;;;;;;;;;;3.90;91.53;101020.03;4953479;28;20302;-71
2023/03/05 02:09:10;;;;;;;;;;;;;;;3.89;91.04;101020.91;4954530;28;19925;-71
2023/03/05 02:12:13;;;;;;;;;;;;;;;3.87;90.95;101017.50;4931744;29;20380;-71
2023/03/05 02:15:17;;;;;;;;;;;;;;;3.91;91.05;101006.22;4954299;28;19977;-71
2023/03/05 02:18:20;;;;;;;;;;;;;;;3.91;90.96;101005.34;4942415;29;19985;-71
2023/03/05 02:21:28;;;;;;;;;;;;;;;3.88;91.90;101002.81;4954238;29;19941;-71
2023/03/05 02:24:35;;;;;;;;;;;;;;;3.88;91.29;100998.50;4942402;29;19946;-71
2023/03/05 02:27:39;;;;;;;;;;;;;;;3.88;91.37;100995.06;4954198;29;19951;-71
2023/03/05 02:30:42;;;;;;;;;;;;;;;3.85;91.06;100997.69;4953390;29;19925;-71
2023/03/05 02:33:45;;;;;;;;;;;;;;;3.85;91.31;100997.69;4954310;29;19946;-71
2023/03/05 02:36:50;;;;;;;;;;;;;;;3.78;91.27;100994.38;4954327;29;19930;-71
2023/03/05 02:39:54;;;;;;;;;;;;;;;3.77;91.64;100997.84;4942299;29;19973;-71
2023/03/05 02:42:57;;;;;;;;;;;;;;;3.85;91.74;100988.19;4942653;28;20397;-71
2023/03/05 02:46:02;;;;;;;;;;;;;;;3.88;91.46;100995.91;4956393;28;20347;-71
2023/03/05 02:49:05;;;;;;;;;;;;;;;3.83;91.41;100991.69;4957473;29;19925;-71
2023/03/05 02:52:09;;;;;;;;;;;;;;;3.81;91.50;100994.31;4945591;29;19960;-71
2023/03/05 02:55:11;;;;;;;;;;;;;;;3.78;91.34;100989.19;4956524;29;19929;-71
2023/03/05 02:58:16;;;;;;;;;;;;;;;3.80;91.62;100992.63;4934566;29;19925;-70
2023/03/05 03:01:19;;;;;;;;;;;;;;;3.78;91.91;100980.59;4957654;29;19925;-71
2023/03/05 03:04:22;;;;;;;;;;;;;;;3.84;91.40;100978.75;4957490;29;20018;-71
2023/03/05 03:07:25;;;;;;;;;;;;;;;3.89;91.63;100981.22;4957047;29;19925;-70
2023/03/05 03:10:28;;;;;;;;;;;;;;;3.84;91.27;100981.31;4957069;29;19925;-70
2023/03/05 03:13:31;;;;;;;;;;;;;;;3.83;91.19;100981.34;4957393;29;19928;-71
2023/03/05 03:16:34;;;;;;;;;;;;;;;3.82;91.10;100980.50;4957210;29;19930;-71
2023/03/05 03:19:38;;;;;;;;;;;;;;;3.78;91.29;100978.84;4956985;29;19973;-70
2023/03/05 03:22:42;;;;;;;;;;;;;;;3.83;91.53;100971.88;4956954;28;20420;-70
2023/03/05 03:25:45;;;;;;;;;;;;;;;3.86;91.07;100971.81;4956885;29;20058;-71
2023/03/05 03:28:49;;;;;;;;;;;;;;;3.88;91.35;100961.44;4956912;29;20248;-71
2023/03/05 03:31:52;;;;;;;;;;;;;;;3.90;90.78;100962.25;4956026;29;19926;-70
2023/03/05 03:34:55;;;;;;;;;;;;;;;3.86;90.93;100961.47;4957019;29;20209;-71
2023/03/05 03:37:58;;;;;;;;;;;;;;;3.85;90.35;100959.75;4956665;29;19926;-70
2023/03/05 03:41:01;;;;;;;;;;;;;;;3.85;90.89;100964.06;4956710;29;20315;-71
2023/03/05 03:44:06;;;;;;;;;;;;;;;3.84;90.59;100957.19;4956849;29;19930;-71
2023/03/05 03:47:09;;;;;;;;;;;;;;;3.81;90.80;100954.66;4956345;29;20352;-70
2023/03/05 03:50:12;;;;;;;;;;;;;;;3.82;90.86;100961.53;4956626;29;19925;-71
2023/03/05 03:53:16;;;;;;;;;;;;;;;3.81;90.74;100952.06;4956386;29;20409;-71
2023/03/05 03:56:19;;;;;;;;;;;;;;;3.79;90.87;100946.06;4956354;29;20397;-71
2023/03/05 03:59:22;;;;;;;;;;;;;;;3.86;90.24;100938.19;4956092;29;19973;-71
2023/03/05 04:02:25;;;;;;;;;;;;;;;3.81;90.25;100946.91;4956091;29;19974;-71
2023/03/05 04:05:29;;;;;;;;;;;;;;;3.75;90.18;100947.00;4956126;29;20025;-71
2023/03/05 04:08:32;;;;;;;;;;;;;;;3.67;90.46;100944.53;4942566;29;20398;-71
2023/03/05 04:11:36;;;;;;;;;;;;;;;3.63;90.38;100948.91;4956083;29;19925;-70
2023/03/05 04:14:39;;;;;;;;;;;;;;;3.59;89.92;100944.69;4955828;29;19930;-71
2023/03/05 04:17:41;;;;;;;;;;;;;;;3.69;90.10;100946.22;4955901;28;19973;-71
2023/03/05 04:20:44;;;;;;;;;;;;;;;3.66;89.39;100938.50;4955802;29;19973;-70
2023/03/05 04:23:48;;;;;;;;;;;;;;;3.66;89.64;100932.50;4955653;29;19968;-70
2023/03/05 04:26:51;;;;;;;;;;;;;;;3.66;89.70;100935.94;4955655;29;20354;-71
2023/03/05 04:29:54;;;;;;;;;;;;;;;3.63;89.50;100923.06;4955816;29;20005;-70
2023/03/05 04:32:57;;;;;;;;;;;;;;;3.59;89.64;100930.91;4955677;29;19926;-71
2023/03/05 04:36:00;;;;;;;;;;;;;;;3.55;90.06;100924.09;4955517;29;19977;-71
2023/03/05 04:39:03;;;;;;;;;;;;;;;3.52;89.83;100918.97;4955304;29;19989;-71
2023/03/05 04:42:06;;;;;;;;;;;;;;;3.59;88.91;100910.22;4955377;29;19926;-70
2023/03/05 04:45:09;;;;;;;;;;;;;;;3.63;88.58;100911.84;4955179;28;19993;-71
2023/03/05 04:48:12;;;;;;;;;;;;;;;3.63;88.64;100907.53;4955230;29;19926;-71
2023/03/05 04:51:15;;;;;;;;;;;;;;;3.65;88.48;100902.34;4955255;29;19925;-70
2023/03/05 04:54:18;;;;;;;;;;;;;;;3.64;88.44;100903.25;4955203;29;20303;-71
2023/03/05 04:57:21;;;;;;;;;;;;;;;3.64;88.31;100904.09;4955259;29;19965;-71
2023/03/05 05:00:24;;;;;;;;;;;;;;;3.59;88.38;100897.28;4955183;29;20394;-71
2023/03/05 05:03:28;;;;;;;;;;;;;;;3.57;88.52;100889.53;4955115;29;20299;-70
2023/03/05 05:06:31;;;;;;;;;;;;;;;3.56;88.71;100890.44;4954526;28;20298;-71
2023/03/05 05:09:34;;;;;;;;;;;;;;;3.54;88.19;100886.16;4955044;29;19982;-71
2023/03/05 05:12:37;;;;;;;;;;;;;;;3.58;87.88;100882.66;4955016;29;19957;-71
2023/03/05 05:15:40;;;;;;;;;;;;;;;3.57;88.02;100880.94;4951015;29;20029;-71
2023/03/05 05:18:43;;;;;;;;;;;;;;;3.58;87.87;100880.09;4954447;29;19926;-71
2023/03/05 05:21:47;;;;;;;;;;;;;;;3.56;87.96;100868.91;4954814;29;19925;-71
2023/03/05 05:24:50;;;;;;;;;;;;;;;3.52;88.82;100873.28;4955190;29;20400;-70
2023/03/05 05:27:53;;;;;;;;;;;;;;;3.49;88.68;100870.75;4954806;29;19946;-70
2023/03/05 05:30:56;;;;;;;;;;;;;;;3.46;89.05;100868.22;4954783;29;19929;-70
2023/03/05 05:33:59;;;;;;;;;;;;;;;3.44;89.47;100878.56;4954709;28;19926;-71
2023/03/05 05:37:02;;;;;;;;;;;;;;;3.42;89.72;100879.50;4954710;29;19991;-71
2023/03/05 05:40:07;;;;;;;;;;;;;;;3.37;89.64;100876.97;4954725;29;19924;-71
2023/03/05 05:43:13;;;;;;;;;;;;;;;3.40;90.24;100889.00;4947427;29;19929;-71
2023/03/05 05:46:17;;;;;;;;;;;;;;;3.41;90.14;100880.34;4954494;28;19929;-71
2023/03/05 05:49:20;;;;;;;;;;;;;;;3.42;90.10;100885.50;4954547;29;19989;-70
2023/03/05 05:52:23;;;;;;;;;;;;;;;3.42;90.01;100882.06;4954885;29;19924;-70
2023/03/05 05:55:26;;;;;;;;;;;;;;;3.42;90.36;100882.94;4954450;29;20013;-71
2023/03/05 05:58:28;;;;;;;;;;;;;;;3.42;89.88;100882.06;4942779;29;20413;-70
2023/03/05 06:01:32;;;;;;;;;;;;;;;3.42;90.00;100876.91;4954555;29;20386;-70
2023/03/05 06:04:37;;;;;;;;;;;;;;;3.41;90.12;100877.75;4954141;28;19926;-70
2023/03/05 06:07:42;;;;;;;;;;;;;;;3.43;90.22;100878.59;4954376;28;19926;-70
2023/03/05 06:10:52;;;;;;;;;;;;;;;3.46;89.86;100873.38;4951230;29;20009;-70
2023/03/05 06:13:55;;;;;;;;;;;;;;;3.45;90.08;100871.69;4954292;28;19925;-70
2023/03/05 06:16:58;;;;;;;;;;;;;;;3.41;90.01;100876.03;4954314;28;19929;-70
2023/03/05 06:20:03;;;;;;;;;;;;;;;3.40;90.12;100874.34;4957750;28;19985;-70
2023/03/05 06:23:06;;;;;;;;;;;;;;;3.38;90.20;100880.41;4957906;28;20352;-69
2023/03/05 06:26:10;;;;;;;;;;;;;;;3.37;90.25;100884.72;4957876;28;19925;-70
2023/03/05 06:29:14;;;;;;;;;;;;;;;3.30;91.42;100883.13;4945939;28;19941;-70
2023/03/05 06:32:16;;;;;;;;;;;;;;;3.32;92.02;100880.50;4957815;28;20352;-76
2023/03/05 06:35:20;;;;;;;;;;;;;;;3.42;91.48;100884.66;4945865;28;19945;-69
2023/03/05 06:38:24;;;;;;;;;;;;;;;3.46;91.20;100883.72;4957764;28;20010;-70
2023/03/05 06:41:31;;;;;;;;;;;;;;;3.46;91.05;100883.72;4945850;28;20061;-70
2023/03/05 06:44:39;;;;;;;;;;;;;;;3.49;90.10;100883.66;4953548;28;20275;-71
2023/03/05 06:47:42;;;;;;;;;;;;;;;3.52;90.77;100880.19;4957681;28;19930;-71
2023/03/05 06:50:45;;;;;;;;;;;;;;;3.54;90.44;100883.56;4945818;28;20422;-70
2023/03/05 06:53:48;;;;;;;;;;;;;;;3.52;90.12;100890.53;4957522;28;19925;-70
2023/03/05 06:56:51;;;;;;;;;;;;;;;3.51;90.48;100892.25;4957457;28;19934;-70
2023/03/05 06:59:54;;;;;;;;;;;;;;;3.47;90.33;100894.03;4957556;28;19925;-70
2023/03/05 07:02:57;;;;;;;;;;;;;;;3.48;91.07;100884.56;4957438;28;19965;-71
2023/03/05 07:06:04;;;;;;;;;;;;;;;3.50;90.75;100881.03;4957174;29;19983;-71
2023/03/05 07:09:07;;;;;;;;;;;;;;;3.53;90.69;100885.31;4945272;28;19925;-70
2023/03/05 07:12:10;;;;;;;;;;;;;;;3.53;90.61;100880.13;4957252;28;19926;-70
2023/03/05 07:15:13;;;;;;;;;;;;;;;3.55;90.97;100874.97;4957171;29;19970;-71
2023/03/05 07:18:16;;;;;;;;;;;;;;;3.56;90.68;100879.25;4956980;28;19925;-70
2023/03/05 07:21:21;;;;;;;;;;;;;;;3.55;90.79;100877.53;4956951;28;19927;-70
2023/03/05 07:24:28;;;;;;;;;;;;;;;3.56;90.83;100880.09;4957040;28;20393;-71
2023/03/05 07:27:37;;;;;;;;;;;;;;;3.58;90.70;100878.34;4956644;28;19941;-70
2023/03/05 07:30:41;;;;;;;;;;;;;;;3.61;90.74;100877.44;4975848;28;19929;-71
2023/03/05 07:33:45;;;;;;;;;;;;;;;3.65;90.68;100872.16;4975972;28;19980;-70
2023/03/05 07:36:51;;;;;;;;;;;;;;;3.63;90.99;100875.66;4976376;28;20341;-70
2023/03/05 07:39:54;;;;;;;;;;;;;;;3.64;91.15;100864.47;4975851;28;19973;-71
2023/03/05 07:42:57;;;;;;;;;;;;;;;3.61;90.90;100872.25;4975881;28;19925;-71
2023/03/05 07:46:07;;;;;;;;;;;;;;;3.63;91.17;100875.66;4945224;29;20073;-70
2023/03/05 07:49:10;;;;;;;;;;;;;;;3.69;91.13;100873.81;4956493;29;19985;-71
2023/03/05 07:52:13;;;;;;;;;;;;;;;3.76;90.99;100865.94;4956263;29;19925;-71
2023/03/05 07:55:17;;;;;;;;;;;;;;;3.78;91.01;100869.38;4956323;29;19929;-71
2023/03/05 07:58:20;;;;;;;;;;;;;;;3.77;91.07;100868.50;4944306;29;20438;-70
2023/03/05 08:01:24;;;;;;;;;;;;;;;3.78;90.89;100864.19;4955438;29;19925;-71
2023/03/05 08:04:30;;;;;;;;;;;;;;;3.85;91.56;100858.84;4955844;29;19993;-69
2023/03/05 08:07:33;;;;;;;;;;;;;;;3.80;91.55;100870.16;4956215;29;20009;-70
2023/03/05 08:10:36;;;;;;;;;;;;;;;3.78;91.54;100859.88;4955943;29;19925;-69
2023/03/05 08:13:39;;;;;;;;;;;;;;;3.74;92.14;100850.47;4956270;29;19972;-71
2023/03/05 08:16:42;;;;;;;;;;;;;;;3.85;91.13;100853.69;4956227;29;19929;-71
2023/03/05 08:19:45;;;;;;;;;;;;;;;3.83;89.63;100842.53;4955826;29;19929;-71
2023/03/05 08:22:49;;;;;;;;;;;;;;;3.65;84.82;100841.13;4955018;28;20406;-71
2023/03/05 08:25:59;;;;;;;;;;;;;;;3.24;81.89;100834.97;4955726;29;19925;-71
2023/03/05 08:29:03;;;;;;;;;;;;;;;3.44;81.46;100829.44;4956098;29;19941;-71
2023/03/05 08:32:19;;;;;;;;;;;;;;;3.65;81.42;100823.03;4955915;29;19942;-70
2023/03/05 08:35:26;;;;;;;;;;;;;;;3.40;80.55;100825.22;4955745;29;19930;-69
2023/03/05 08:38:29;;;;;;;;;;;;;;;3.69;80.22;100818.66;4942731;29;19925;-71
2023/03/05 08:41:33;;;;;;;;;;;;;;;3.80;79.66;100827.06;4953394;28;20446;-70
2023/03/05 08:44:42;;;;;;;;;;;;;;;3.47;79.43;100824.22;4954092;29;20461;-71
2023/03/05 08:47:47;;;;;;;;;;;;;;;3.38;80.69;100827.00;4955460;29;19929;-69
2023/03/05 08:50:50;;;;;;;;;;;;;;;3.39;80.42;100833.88;4943705;29;19925;-67
2023/03/05 08:53:57;;;;;;;;;;;;;;;3.33;79.89;100826.22;4955204;29;20014;-68
2023/03/05 08:57:00;;;;;;;;;;;;;;;3.24;80.19;100821.19;4955044;29;19929;-67
2023/03/05 09:00:06;;;;;;;;;;;;;;;3.16;80.06;100833.38;4955437;29;20017;-69
2023/03/05 09:03:08;;;;;;;;;;;;;;;3.05;80.93;100836.16;4955165;29;20334;-70
2023/03/05 09:06:11;;;;;;;;;;;;;;;3.26;81.72;100829.78;4943367;29;19926;-69
2023/03/05 09:09:14;;;;;;;;;;;;;;;3.17;82.22;100825.63;4955356;29;20434;-68
2023/03/05 09:12:18;;;;;;;;;;;;;;;3.39;81.50;100827.84;4954105;29;20354;-68
2023/03/05 09:15:21;;;;;;;;;;;;;;;3.25;81.60;100830.66;4953735;29;20342;-68
2023/03/05 09:18:24;;;;;;;;;;;;;;;3.06;83.05;100827.53;4954982;29;20311;-70
2023/03/05 09:21:28;;;;;;;;;;;;;;;3.23;82.81;100822.94;4955205;29;19972;-68
2023/03/05 09:24:31;;;;;;;;;;;;;;;3.47;81.97;100813.88;4954792;29;19929;-68
2023/03/05 09:27:35;;;;;;;;;;;;;;;3.46;81.79;100817.34;4954734;29;19925;-68
2023/03/05 09:30:38;;;;;;;;;;;;;;;3.31;81.76;100812.47;4955052;29;19930;-68
2023/03/05 09:33:42;;;;;;;;;;;;;;;3.30;81.43;100808.19;4951076;29;20487;-67
2023/03/05 09:36:44;;;;;;;;;;;;;;;3.58;80.95;100802.50;4954350;29;19934;-67
2023/03/05 09:39:47;;;;;;;;;;;;;;;3.56;80.71;100799.09;4954889;29;19925;-67
2023/03/05 09:42:53;;;;;;;;;;;;;;;3.32;80.41;100803.84;4954617;29;19925;-68
2023/03/05 09:45:56;;;;;;;;;;;;;;;3.49;80.87;100798.34;4961489;28;19929;-68
2023/03/05 09:49:06;;;;;;;;;;;;;;;3.52;79.74;100800.03;4973724;28;19950;-68
2023/03/05 09:52:15;;;;;;;;;;;;;;;3.60;80.02;100798.13;4974759;28;19925;-68
2023/03/05 09:55:22;;;;;;;;;;;;;;;3.49;80.35;100790.59;4977851;28;20330;-68
2023/03/05 09:58:32;;;;;;;;;;;;;;;3.57;79.58;100787.84;4977631;28;19924;-68
2023/03/05 10:01:37;;;;;;;;;;;;;;;3.64;78.94;100789.47;4978038;28;20283;-67
2023/03/05 10:04:44;;;;;;;;;;;;;;;3.65;78.23;100783.41;4977706;28;20327;-68
2023/03/05 10:07:58;;;;;;;;;;;;;;;3.65;78.20;100783.41;4977847;28;19973;-68
2023/03/05 10:11:05;;;;;;;;;;;;;;;3.74;78.27;100780.63;4977611;28;20006;-68
2023/03/05 10:14:13;;;;;;;;;;;;;;;3.77;77.67;100775.41;4977475;28;19941;-69
2023/03/05 10:17:46;;;;;;;;;;;;;;;3.91;76.88;100773.38;4977644;28;19930;-69
2023/03/05 10:20:54;;;;;;;;;;;;;;;4.30;74.84;100760.44;4977552;28;19939;-68
2023/03/05 10:24:06;;;;;;;;;;;;;;;4.56;74.09;100762.47;4977234;28;19929;-70
2023/03/05 10:27:20;;;;;;;;;;;;;;;4.72;74.49;100747.38;4977338;28;20458;-68
2023/03/05 10:30:41;;;;;;;;;;;;;;;4.94;72.40;100726.94;4977258;28;19925;-67
2023/03/05 10:33:56;;;;;;;;;;;;;;;5.17;71.27;100720.31;4977441;28;20196;-68
2023/03/05 10:37:20;;;;;;;;;;;;;;;5.19;69.77;100719.38;4965142;28;19929;-69
2023/03/05 10:40:23;;;;;;;;;;;;;;;5.23;68.41;100713.25;4977120;28;19935;-72
2023/03/05 10:43:36;;;;;;;;;;;;;;;4.90;69.90;100712.38;4977161;28;19925;-68
2023/03/05 10:46:40;;;;;;;;;;;;;;;4.97;67.33;100705.31;4976953;28;20350;-68
2023/03/05 10:49:48;;;;;;;;;;;;;;;5.28;66.34;100706.19;4976900;28;20021;-67
2023/03/05 10:53:12;;;;;;;;;;;;;;;4.97;66.69;100700.13;4977242;28;19993;-68
2023/03/05 10:56:20;;;;;;;;;;;;;;;4.51;66.80;100706.47;4967205;28;19994;-68
2023/03/05 10:59:24;;;;;;;;;;;;;;;4.63;67.37;100696.66;4976864;28;19973;-68
2023/03/05 11:02:27;;;;;;;;;;;;;;;4.52;68.40;100695.22;4965136;28;19977;-68
2023/03/05 11:05:33;;;;;;;;;;;;;;;4.87;67.66;100690.00;4975938;28;19973;-71
2023/03/05 11:08:37;;;;;;;;;;;;;;;4.90;66.23;100694.25;4976613;28;20014;-71
2023/03/05 11:11:42;;;;;;;;;;;;;;;4.80;66.23;100688.47;4976514;28;20342;-70
2023/03/05 11:15:04;;;;;;;;;;;;;;;4.74;66.87;100677.41;4964417;28;20449;-73
2023/03/05 11:18:20;;;;;;;;;;;;;;;4.73;66.51;100676.56;4976703;28;20286;-70
2023/03/05 11:21:28;;;;;;;;;;;;;;;4.96;65.40;100677.69;4976074;28;19924;-71
2023/03/05 11:24:34;;;;;;;;;;;;;;;4.81;65.47;100669.41;4976349;28;19968;-71
2023/03/05 11:27:43;;;;;;;;;;;;;;;4.87;65.37;100671.00;4964019;28;19941;-70
2023/03/05 11:30:55;;;;;;;;;;;;;;;4.57;65.90;100667.47;4976448;28;19924;-71
2023/03/05 11:33:58;;;;;;;;;;;;;;;4.78;66.16;100666.06;4976206;28;19929;-71
2023/03/05 11:37:03;;;;;;;;;;;;;;;4.49;66.28;100656.47;4976590;28;19977;-70
2023/03/05 11:40:09;;;;;;;;;;;;;;;4.87;66.39;100658.91;4976154;28;20313;-71
2023/03/05 11:43:19;;;;;;;;;;;;;;;4.90;66.06;100664.00;4976058;28;20034;-71
2023/03/05 11:46:24;;;;;;;;;;;;;;;4.76;65.85;100650.56;4975987;28;20298;-71
2023/03/05 11:49:29;;;;;;;;;;;;;;;5.06;64.59;100638.53;4975812;28;19925;-69
2023/03/05 11:52:44;;;;;;;;;;;;;;;5.54;63.64;100634.56;4975909;28;19941;-69
2023/03/05 11:55:50;;;;;;;;;;;;;;;5.62;63.53;100632.59;4975676;28;19969;-71
2023/03/05 11:59:12;;;;;;;;;;;;;;;5.12;62.53;100634.91;4975979;28;19925;-70
2023/03/05 12:02:23;;;;;;;;;;;;;;;5.09;63.18;100637.59;4975611;28;20285;-70
2023/03/05 12:05:30;;;;;;;;;;;;;;;4.98;64.14;100637.91;4975729;28;19925;-70
2023/03/05 12:08:35;;;;;;;;;;;;;;;4.84;63.93;100633.06;4975561;28;20381;-69
2023/03/05 12:11:39;;;;;;;;;;;;;;;4.79;64.65;100634.97;4975780;28;19973;-69
2023/03/05 12:14:57;;;;;;;;;;;;;;;4.68;64.70;100623.16;4963288;28;20490;-69
2023/03/05 12:18:12;;;;;;;;;;;;;;;5.01;64.08;100608.44;4975263;28;19925;-70
2023/03/05 12:21:35;;;;;;;;;;;;;;;5.34;62.40;100593.69;4974405;28;19966;-69
2023/03/05 12:24:38;;;;;;;;;;;;;;;5.22;62.02;100594.03;4974920;28;19965;-70
2023/03/05 12:27:42;;;;;;;;;;;;;;;5.51;61.25;100588.81;4975259;28;20294;-70
2023/03/05 12:30:45;;;;;;;;;;;;;;;5.09;62.16;100598.72;4963088;28;20405;-70
2023/03/05 12:33:49;;;;;;;;;;;;;;;5.10;62.81;100592.63;4975089;28;19946;-70
2023/03/05 12:36:55;;;;;;;;;;;;;;;5.03;62.70;100585.94;4974973;28;19928;-69
2023/03/05 12:40:07;;;;;;;;;;;;;;;4.88;62.90;100582.88;4975169;28;19929;-70
2023/03/05 12:43:28;;;;;;;;;;;;;;;4.85;63.14;100580.38;4974977;28;20060;-71
2023/03/05 12:46:34;;;;;;;;;;;;;;;4.73;63.82;100567.75;4974558;28;19933;-70
2023/03/05 12:49:38;;;;;;;;;;;;;;;4.85;63.81;100570.03;4962801;28;20294;-70
2023/03/05 12:52:44;;;;;;;;;;;;;;;4.93;63.16;100563.78;4974742;28;19928;-70
2023/03/05 12:55:57;;;;;;;;;;;;;;;4.87;62.79;100559.59;4974647;28;19929;-70
2023/03/05 12:59:03;;;;;;;;;;;;;;;4.95;62.82;100562.00;4974374;28;19945;-68
2023/03/05 13:02:16;;;;;;;;;;;;;;;4.88;63.34;100546.63;4962442;28;20330;-70
2023/03/05 13:05:24;;;;;;;;;;;;;;;4.98;62.22;100543.75;4974479;28;19924;-68
2023/03/05 13:08:30;;;;;;;;;;;;;;;4.91;61.72;100524.94;4974351;28;19924;-70
2023/03/05 13:11:36;;;;;;;;;;;;;;;4.72;62.52;100529.78;4974584;28;20297;-69
2023/03/05 13:14:46;;;;;;;;;;;;;;;4.93;62.02;100524.91;4974371;28;19993;-69
2023/03/05 13:17:57;;;;;;;;;;;;;;;4.86;62.18;100506.94;4974175;28;20301;-70
2023/03/05 13:21:03;;;;;;;;;;;;;;;5.02;62.02;100511.69;4974573;28;20446;-71
2023/03/05 13:24:14;;;;;;;;;;;;;;;5.08;61.97;100509.75;4974217;28;20017;-70
2023/03/05 13:27:19;;;;;;;;;;;;;;;5.23;61.32;100500.69;4973730;28;19925;-70
2023/03/05 13:30:24;;;;;;;;;;;;;;;5.20;61.80;100500.78;4974105;28;19925;-70
2023/03/05 13:33:29;;;;;;;;;;;;;;;5.32;61.79;100500.38;4974096;28;20038;-70
2023/03/05 13:36:32;;;;;;;;;;;;;;;5.33;61.86;100491.72;4974296;28;19929;-69
2023/03/05 13:39:45;;;;;;;;;;;;;;;5.43;61.59;100481.06;4974033;28;19940;-69
2023/03/05 13:42:52;;;;;;;;;;;;;;;5.11;61.67;100486.34;4974022;28;19941;-69
2023/03/05 13:45:56;;;;;;;;;;;;;;;5.08;62.19;100491.59;4950867;28;19929;-69
2023/03/05 13:49:18;;;;;;;;;;;;;;;4.78;63.04;100485.56;4950957;28;19925;-68
2023/03/05 13:52:28;;;;;;;;;;;;;;;4.99;62.87;100491.03;4935075;29;20002;-68
2023/03/05 13:55:32;;;;;;;;;;;;;;;4.95;63.16;100486.84;4935330;29;19934;-68
2023/03/05 13:58:46;;;;;;;;;;;;;;;4.85;63.04;100481.94;4946626;29;19925;-67
2023/03/05 14:01:51;;;;;;;;;;;;;;;4.96;63.25;100478.16;4942489;29;19925;-68
2023/03/05 14:04:54;;;;;;;;;;;;;;;4.99;62.92;100475.50;4954310;29;19925;-67
2023/03/05 14:07:57;;;;;;;;;;;;;;;4.93;62.97;100473.09;4954212;29;19926;-67
2023/03/05 14:11:21;;;;;;;;;;;;;;;5.01;62.99;100468.50;4954437;29;20054;-68
2023/03/05 14:15:19;;;;;;;;;;;;;;;4.92;63.77;100458.44;4909152;29;20101;-68
2023/03/05 14:18:24;;;;;;;;;;;;;;;4.98;62.91;100453.03;4935460;29;19929;-69
2023/03/05 14:22:01;;;;;;;;;;;;;;;5.28;66.07;100452.09;4923334;29;19926;-66
2023/03/05 14:25:05;;;;;;;;;;;;;;;5.59;63.87;100448.53;4917759;29;19938;-66
2023/03/05 14:28:15;;;;;;;;;;;;;;;5.04;62.71;100442.50;4935075;29;19926;-68
2023/03/05 14:31:18;;;;;;;;;;;;;;;4.97;62.97;100433.22;4935176;29;19926;-72
2023/03/05 14:34:24;;;;;;;;;;;;;;;4.93;62.75;100434.22;4934657;29;20014;-68
2023/03/05 14:37:30;;;;;;;;;;;;;;;4.80;63.13;100429.41;4934295;29;19929;-70
2023/03/05 14:40:35;;;;;;;;;;;;;;;4.80;63.02;100426.81;4937337;29;20314;-67
2023/03/05 14:43:38;;;;;;;;;;;;;;;4.80;63.07;100411.25;4926682;29;19966;-67
2023/03/05 14:46:46;;;;;;;;;;;;;;;4.90;62.70;100404.06;4937933;29;19929;-69
2023/03/05 14:49:49;;;;;;;;;;;;;;;5.07;63.13;100400.94;4938039;29;19955;-69
2023/03/05 14:52:58;;;;;;;;;;;;;;;4.86;62.69;100398.13;4926608;29;19929;-69
2023/03/05 14:56:02;;;;;;;;;;;;;;;4.79;63.08;100390.59;4937181;29;19929;-69
2023/03/05 14:59:07;;;;;;;;;;;;;;;4.87;62.83;100389.44;4935191;29;20371;-69
2023/03/05 15:02:18;;;;;;;;;;;;;;;5.02;62.88;100379.53;4937427;29;20434;-69
2023/03/05 15:05:21;;;;;;;;;;;;;;;4.81;63.03;100373.25;4937623;29;19933;-69
2023/03/05 15:08:25;;;;;;;;;;;;;;;4.84;63.02;100371.41;4925764;29;19926;-69
2023/03/05 15:11:30;;;;;;;;;;;;;;;4.92;62.93;100365.16;4937612;29;20430;-69
2023/03/05 15:14:33;;;;;;;;;;;;;;;4.95;62.96;100349.53;4937649;29;20446;-68
2023/03/05 15:17:41;;;;;;;;;;;;;;;4.86;63.42;100348.91;4937754;29;19941;-68
2023/03/05 15:20:47;;;;;;;;;;;;;;;5.03;63.34;100342.34;4937681;29;19926;-69
2023/03/05 15:23:51;;;;;;;;;;;;;;;4.89;63.04;100340.19;4934630;29;19925;-68
2023/03/05 15:26:55;;;;;;;;;;;;;;;5.00;62.65;100343.28;4937563;29;19926;-68
2023/03/05 15:29:59;;;;;;;;;;;;;;;5.08;62.66;100337.88;4925428;29;20451;-70
2023/03/05 15:33:05;;;;;;;;;;;;;;;4.97;63.00;100342.53;4937181;29;19925;-69
2023/03/05 15:36:08;;;;;;;;;;;;;;;4.86;62.81;100329.94;4937274;29;19994;-69
2023/03/05 15:39:12;;;;;;;;;;;;;;;4.83;63.08;100333.47;4937652;29;19925;-70
2023/03/05 15:42:15;;;;;;;;;;;;;;;5.01;63.74;100329.44;4937532;29;19926;-70
2023/03/05 15:45:18;;;;;;;;;;;;;;;4.91;63.46;100322.84;4937428;29;19941;-70
2023/03/05 15:48:22;;;;;;;;;;;;;;;4.81;63.63;100327.47;4937338;29;20025;-68
2023/03/05 15:51:25;;;;;;;;;;;;;;;5.04;63.79;100320.69;4937011;29;20344;-72
2023/03/05 15:54:28;;;;;;;;;;;;;;;5.04;63.52;100318.09;4925623;29;19974;-70
2023/03/05 15:57:34;;;;;;;;;;;;;;;5.16;63.27;100311.69;4937554;29;20010;-70
2023/03/05 16:00:39;;;;;;;;;;;;;;;5.04;63.42;100312.91;4937281;29;20340;-71
2023/03/05 16:03:42;;;;;;;;;;;;;;;5.12;63.45;100308.34;4937192;29;19974;-71
2023/03/05 16:06:47;;;;;;;;;;;;;;;5.10;63.73;100307.53;4937187;29;19970;-71